Time;durP1;ratioP1;P1;durP2;ratioP2;P2;SDS_P1;SDS_P2;PMS_P1;PMS_P2;Temp;Humidity;BMP_temperature;BMP_pressure;BME280_temperature;BME280_humidity;BME280_pressure;Samples;Min_cycle;Max_cycle;Signal;HPM_P1;HPM_P2
2021/05/22 00:00:44;;;;;;;7.33;3.10;;;;;;;22.65;33.85;99396.59;1709302;82;20976;-38
2021/05/22 00:03:10;;;;;;;6.90;3.40;;;;;;;22.65;33.85;99397.09;1710712;83;21034;-40
2021/05/22 00:05:37;;;;;;;8.35;3.45;;;;;;;22.63;33.85;99397.22;1711499;82;21127;-38
2021/05/22 00:08:05;;;;;;;7.55;2.92;;;;;;;22.62;33.84;99393.67;1702591;82;21501;-40
2021/05/22 00:10:32;;;;;;;8.95;2.77;;;;;;;22.61;33.83;99390.66;1681498;82;21131;-40
2021/05/22 00:12:58;;;;;;;11.45;3.20;;;;;;;22.62;33.83;99392.33;1703179;82;21032;-39
2021/05/22 00:15:25;;;;;;;5.72;3.15;;;;;;;22.61;33.86;99397.36;1709651;82;21046;-41
2021/05/22 00:17:51;;;;;;;7.25;3.08;;;;;;;22.60;33.89;99392.96;1719771;81;21058;-38
2021/05/22 00:20:18;;;;;;;6.03;3.70;;;;;;;22.59;33.88;99389.94;1716409;82;21010;-38
2021/05/22 00:22:45;;;;;;;3.92;2.67;;;;;;;22.60;33.90;99388.10;1714529;82;21113;-38
2021/05/22 00:25:12;;;;;;;7.15;3.85;;;;;;;22.59;33.88;99383.70;1714016;81;21090;-38
2021/05/22 00:27:39;;;;;;;9.68;3.20;;;;;;;22.57;33.95;99393.22;1713602;82;21062;-38
2021/05/22 00:30:07;;;;;;;5.90;2.80;;;;;;;22.57;34.02;99391.88;1722344;81;21025;-39
2021/05/22 00:32:34;;;;;;;5.45;3.02;;;;;;;22.58;34.04;99400.80;1715097;82;21038;-38
2021/05/22 00:35:00;;;;;;;6.40;3.35;;;;;;;22.57;34.06;99402.61;1712431;81;21101;-38
2021/05/22 00:37:27;;;;;;;7.10;2.65;;;;;;;22.56;34.08;99403.61;1683093;83;21077;-38
2021/05/22 00:39:54;;;;;;;5.15;2.62;;;;;;;22.56;34.09;99408.97;1662609;84;21644;-40
2021/05/22 00:42:21;;;;;;;9.40;2.83;;;;;;;22.54;34.08;99400.19;1664970;84;21082;-39
2021/05/22 00:45:21;;;;;;;7.33;2.83;;;;;;;22.55;34.09;99403.23;1663063;85;21006;-38
2021/05/22 00:47:50;;;;;;;7.17;2.80;;;;;;;22.54;34.10;99397.51;1681829;83;21744;-38
2021/05/22 00:50:26;;;;;;;4.12;2.58;;;;;;;22.52;34.11;99395.45;1680957;83;21014;-39
2021/05/22 00:52:52;;;;;;;9.78;2.62;;;;;;;22.53;34.14;99403.03;1650564;83;21050;-37
2021/05/22 00:55:19;;;;;;;7.62;3.77;;;;;;;22.52;34.14;99398.64;1680634;83;21045;-38
2021/05/22 00:57:46;;;;;;;8.58;2.85;;;;;;;22.51;34.15;99395.12;1678680;83;21038;-38
2021/05/22 01:00:15;;;;;;;6.78;2.83;;;;;;;22.50;34.15;99396.09;1680713;83;21025;-38
2021/05/22 01:02:42;;;;;;;4.78;2.30;;;;;;;22.50;34.12;99394.75;1652057;85;21083;-38
2021/05/22 01:05:10;;;;;;;5.28;2.45;;;;;;;22.49;34.11;99386.33;1681318;83;20985;-39
2021/05/22 01:07:37;;;;;;;6.12;2.80;;;;;;;22.49;34.13;99397.05;1631825;84;21540;-38
2021/05/22 01:10:05;;;;;;;7.17;2.70;;;;;;;22.49;34.15;99389.52;1682012;83;21544;-38
2021/05/22 01:12:34;;;;;;;4.92;2.60;;;;;;;22.47;34.19;99390.98;1659619;84;21037;-38
2021/05/22 01:15:09;;;;;;;6.92;2.52;;;;;;;22.47;34.19;99392.32;1661929;85;21168;-39
2021/05/22 01:17:38;;;;;;;6.50;2.08;;;;;;;22.47;34.22;99395.00;1680523;83;21553;-38
2021/05/22 01:20:30;;;;;;;6.47;2.37;;;;;;;22.47;34.24;99392.83;1681569;83;21109;-38
2021/05/22 01:23:00;;;;;;;4.85;2.30;;;;;;;22.46;34.27;99397.34;1657079;84;21855;-38
2021/05/22 01:25:41;;;;;;;7.08;2.50;;;;;;;22.45;34.30;99399.66;1657437;85;21153;-38
2021/05/22 01:28:10;;;;;;;6.22;1.90;;;;;;;22.44;34.26;99392.11;1681438;83;21589;-38
2021/05/22 01:30:38;;;;;;;8.25;2.72;;;;;;;22.43;34.31;99401.63;1681202;83;21029;-38
2021/05/22 01:33:08;;;;;;;7.30;2.30;;;;;;;22.43;34.31;99408.33;1681624;83;21077;-37
2021/05/22 01:35:36;;;;;;;4.70;2.50;;;;;;;22.43;34.33;99408.33;1686062;83;21025;-39
2021/05/22 01:38:02;;;;;;;6.75;2.20;;;;;;;22.40;34.33;99407.25;1679785;83;21091;-38
2021/05/22 01:40:29;;;;;;;5.37;2.35;;;;;;;22.39;34.36;99409.55;1681817;83;21019;-38
2021/05/22 01:42:55;;;;;;;5.97;2.60;;;;;;;22.38;34.35;99408.72;1682968;83;21032;-38
2021/05/22 01:45:28;;;;;;;9.05;2.27;;;;;;;22.38;34.37;99413.23;1642897;85;21579;-38
2021/05/22 01:47:55;;;;;;;7.72;2.50;;;;;;;22.38;34.38;99410.55;1685715;83;21664;-38
2021/05/22 01:50:22;;;;;;;5.65;2.15;;;;;;;22.38;34.38;99415.91;1659706;83;21076;-38
2021/05/22 01:52:54;;;;;;;7.20;2.87;;;;;;;22.37;34.38;99416.89;1689922;83;21040;-38
2021/05/22 01:55:21;;;;;;;6.30;2.72;;;;;;;22.36;34.41;99408.47;1712172;82;21078;-38
2021/05/22 01:57:49;;;;;;;6.58;2.30;;;;;;;22.36;34.41;99416.52;1682459;83;21673;-38
2021/05/22 02:00:16;;;;;;;6.65;2.20;;;;;;;22.35;34.37;99411.66;1645650;84;21499;-38
2021/05/22 02:03:06;;;;;;;7.50;2.62;;;;;;;22.34;34.38;99417.14;1676576;83;21107;-37
2021/05/22 02:05:32;;;;;;;5.35;2.37;;;;;;;22.35;34.37;99417.52;1658465;84;21156;-41
2021/05/22 02:07:59;;;;;;;4.50;2.52;;;;;;;22.35;34.35;99414.83;1669093;84;21040;-38
2021/05/22 02:10:26;;;;;;;5.60;2.25;;;;;;;22.33;34.36;99415.46;1664371;84;21204;-38
2021/05/22 02:12:55;;;;;;;6.95;2.50;;;;;;;22.33;34.37;99420.82;1682747;83;21026;-38
2021/05/22 02:15:23;;;;;;;11.90;2.17;;;;;;;22.33;34.37;99416.30;1662577;83;21160;-38
2021/05/22 02:17:51;;;;;;;5.58;2.12;;;;;;;22.34;34.33;99414.46;1687304;84;21028;-37
2021/05/22 02:20:22;;;;;;;6.30;2.35;;;;;;;22.37;34.30;99420.91;1724073;81;21607;-38
2021/05/22 02:22:48;;;;;;;5.22;1.98;;;;;;;22.41;34.22;99419.18;1703961;83;21720;-38
2021/05/22 02:25:15;;;;;;;6.62;2.00;;;;;;;22.48;34.13;99416.82;1722396;82;21057;-39
2021/05/22 02:27:41;;;;;;;7.50;2.45;;;;;;;22.55;34.02;99419.83;1676819;82;21667;-38
2021/05/22 02:30:10;;;;;;;5.70;2.27;;;;;;;22.62;33.93;99421.83;1729354;82;21563;-40
2021/05/22 02:32:39;;;;;;;8.05;2.20;;;;;;;22.71;33.81;99422.02;1722449;82;21009;-39
2021/05/22 02:35:07;;;;;;;6.58;2.50;;;;;;;22.80;33.68;99423.91;1712885;82;21089;-40
2021/05/22 02:37:34;;;;;;;6.50;2.22;;;;;;;22.93;33.55;99426.35;1701113;82;21022;-40
2021/05/22 02:40:05;;;;;;;5.92;2.00;;;;;;;23.07;33.39;99431.91;1721693;82;21224;-38
2021/05/22 02:42:32;;;;;;;9.50;2.15;;;;;;;23.20;33.24;99435.20;1707026;83;21053;-38
2021/05/22 02:44:59;;;;;;;4.20;2.40;;;;;;;23.33;33.06;99430.45;1720849;82;21116;-40
2021/05/22 02:47:26;;;;;;;5.55;2.30;;;;;;;23.49;32.86;99434.44;1706786;83;21045;-37
2021/05/22 02:49:52;;;;;;;6.58;1.80;;;;;;;23.63;32.69;99428.64;1700016;82;21148;-38
2021/05/22 02:52:19;;;;;;;6.80;2.40;;;;;;;23.80;32.48;99435.67;1679704;83;21053;-39
2021/05/22 02:54:47;;;;;;;5.45;1.80;;;;;;;23.93;32.21;99428.22;1702336;82;21078;-38
2021/05/22 02:57:14;;;;;;;6.37;1.90;;;;;;;24.08;32.03;99445.61;1701224;83;21650;-38
2021/05/22 02:59:41;;;;;;;2.83;1.62;;;;;;;24.24;31.83;99440.16;1719911;82;21567;-38
2021/05/22 03:02:08;;;;;;;3.62;1.90;;;;;;;24.38;31.61;99449.14;1721003;82;21025;-38
2021/05/22 03:04:34;;;;;;;11.55;2.00;;;;;;;24.55;31.39;99452.13;1726912;82;21158;-38
2021/05/22 03:07:03;;;;;;;7.00;1.77;;;;;;;24.71;31.18;99451.00;1719918;82;21175;-38
2021/05/22 03:09:31;;;;;;;2.58;1.40;;;;;;;24.90;30.92;99455.98;1720784;82;21029;-38
2021/05/22 03:11:58;;;;;;;3.45;1.60;;;;;;;25.08;30.66;99464.98;1721274;82;22020;-38
2021/05/22 03:14:24;;;;;;;5.45;1.62;;;;;;;25.24;30.41;99458.14;1721234;82;21077;-38
2021/05/22 03:16:51;;;;;;;3.98;1.95;;;;;;;25.41;30.18;99457.36;1717827;82;21145;-39
2021/05/22 03:19:17;;;;;;;5.65;1.50;;;;;;;25.59;29.94;99456.91;1656702;83;21032;-38
2021/05/22 03:21:44;;;;;;;3.45;1.50;;;;;;;25.77;29.63;99462.80;1661411;85;21094;-39
2021/05/22 03:24:12;;;;;;;4.22;1.70;;;;;;;25.93;29.39;99460.28;1683706;83;21110;-38
2021/05/22 03:26:40;;;;;;;3.90;1.65;;;;;;;26.13;29.14;99466.41;1652551;85;21092;-39
2021/05/22 03:29:06;;;;;;;3.37;1.40;;;;;;;26.33;28.87;99464.39;1680309;83;21075;-38
2021/05/22 03:31:34;;;;;;;5.12;2.30;;;;;;;26.54;28.59;99465.89;1660653;85;21575;-38
2021/05/22 03:34:00;;;;;;;5.55;1.40;;;;;;;26.74;28.30;99468.44;1680585;83;21144;-38
2021/05/22 03:36:27;;;;;;;6.15;1.62;;;;;;;26.94;28.05;99467.72;1635025;85;21579;-38
2021/05/22 03:38:53;;;;;;;2.87;1.27;;;;;;;27.13;27.77;99465.28;1661679;84;21090;-40
2021/05/22 03:41:21;;;;;;;3.10;1.60;;;;;;;27.30;27.52;99461.67;1653093;84;21096;-38
2021/05/22 03:43:47;;;;;;;4.53;1.52;;;;;;;27.49;27.21;99462.41;1650211;85;21046;-39
2021/05/22 03:46:14;;;;;;;4.55;1.70;;;;;;;27.64;27.04;99463.98;1689801;83;21050;-38
2021/05/22 03:48:41;;;;;;;4.95;1.47;;;;;;;27.78;26.82;99465.55;1687596;83;21136;-38
2021/05/22 03:51:08;;;;;;;2.58;1.30;;;;;;;27.93;26.59;99467.66;1687836;83;21017;-36
2021/05/22 03:53:34;;;;;;;3.27;1.30;;;;;;;28.07;26.41;99458.03;1688306;83;21094;-38
2021/05/22 03:56:01;;;;;;;3.77;1.47;;;;;;;28.20;26.19;99471.91;1685734;83;21139;-39
2021/05/22 03:58:28;;;;;;;2.87;1.20;;;;;;;28.32;26.04;99468.36;1659086;83;20990;-38
2021/05/22 04:00:54;;;;;;;4.05;1.00;;;;;;;28.47;25.75;99473.42;1694922;83;21053;-38
2021/05/22 04:03:22;;;;;;;1.87;1.32;;;;;;;28.59;25.66;99477.17;1691400;83;21132;-38
2021/05/22 04:05:48;;;;;;;2.37;1.32;;;;;;;28.73;25.48;99477.82;1684317;82;21582;-39
2021/05/22 04:08:15;;;;;;;5.83;1.22;;;;;;;28.85;25.25;99484.59;1688210;83;22026;-39
2021/05/22 04:10:41;;;;;;;3.85;1.22;;;;;;;29.00;25.11;99490.64;1657656;84;21240;-38
2021/05/22 04:13:08;;;;;;;3.52;1.32;;;;;;;29.11;24.98;99495.69;1688320;83;21065;-41
2021/05/22 04:15:35;;;;;;;2.65;1.20;;;;;;;29.19;24.84;99496.22;1658124;84;21021;-41
2021/05/22 04:18:01;;;;;;;1.60;1.10;;;;;;;29.25;24.70;99499.08;1667067;83;21107;-40
2021/05/22 04:20:28;;;;;;;2.98;1.07;;;;;;;29.27;24.59;99505.69;1681055;83;21061;-39
2021/05/22 04:22:55;;;;;;;5.35;1.20;;;;;;;29.27;24.54;99502.45;1662406;85;21038;-39
2021/05/22 04:25:21;;;;;;;2.67;1.00;;;;;;;29.27;24.54;99503.81;1660111;84;21571;-38
2021/05/22 04:27:48;;;;;;;1.70;0.90;;;;;;;29.27;24.52;99499.75;1671377;83;21089;-40
2021/05/22 04:30:17;;;;;;;3.83;1.17;;;;;;;29.28;24.54;99495.16;1662695;84;21633;-38
2021/05/22 04:32:44;;;;;;;1.85;1.02;;;;;;;29.26;24.53;99499.92;1666453;83;21547;-38
2021/05/22 04:35:11;;;;;;;3.30;1.10;;;;;;;29.16;24.60;99496.02;1686295;83;21161;-39
2021/05/22 04:37:37;;;;;;;5.15;1.20;;;;;;;29.00;24.74;99498.76;1686071;83;21070;-39
2021/05/22 04:40:05;;;;;;;1.67;1.20;;;;;;;28.79;24.96;99498.80;1685676;83;21025;-39
2021/05/22 04:42:32;;;;;;;2.17;1.12;;;;;;;28.57;25.20;99499.52;1686737;83;21198;-38
2021/05/22 04:44:59;;;;;;;2.33;1.12;;;;;;;28.35;25.40;99496.44;1654186;84;21038;-39
2021/05/22 04:47:26;;;;;;;1.72;1.10;;;;;;;28.16;25.66;99490.33;1669727;83;21596;-40
2021/05/22 04:49:52;;;;;;;3.55;1.15;;;;;;;28.00;25.83;99492.17;1684952;83;21112;-38
2021/05/22 04:52:22;;;;;;;3.47;1.02;;;;;;;27.84;26.04;99498.34;1689473;83;21074;-37
2021/05/22 04:54:48;;;;;;;3.62;1.15;;;;;;;27.67;26.21;99495.61;1691126;83;21096;-44
2021/05/22 04:57:14;;;;;;;2.67;1.30;;;;;;;27.54;26.49;99493.88;1694782;83;21128;-39
2021/05/22 04:59:41;;;;;;;5.97;2.27;;;;;;;27.41;26.66;99504.61;1689572;83;21692;-38
2021/05/22 05:02:08;;;;;;;3.10;2.20;;;;;;;27.29;26.79;99507.27;1685504;83;21689;-38
2021/05/22 05:04:34;;;;;;;2.98;2.02;;;;;;;27.18;26.89;99503.45;1687845;83;21051;-37
2021/05/22 05:07:03;;;;;;;3.47;2.00;;;;;;;27.09;26.98;99507.13;1687792;83;21173;-38
2021/05/22 05:09:36;;;;;;;3.60;1.65;;;;;;;26.99;27.05;99505.37;1690441;83;21050;-38
2021/05/22 05:12:04;;;;;;;4.17;1.85;;;;;;;26.90;27.10;99507.69;1686508;82;21537;-37
2021/05/22 05:14:31;;;;;;;4.45;1.32;;;;;;;26.81;27.23;99505.41;1685988;83;21055;-36
2021/05/22 05:16:58;;;;;;;2.58;1.27;;;;;;;26.73;27.27;99508.56;1684325;83;21601;-37
2021/05/22 05:19:27;;;;;;;8.20;2.00;;;;;;;26.64;27.38;99511.71;1721369;82;21063;-36
2021/05/22 05:21:55;;;;;;;4.35;1.20;;;;;;;26.56;27.51;99509.75;1715118;82;20993;-36
2021/05/22 05:24:22;;;;;;;5.58;1.40;;;;;;;26.50;27.53;99515.80;1728270;82;20958;-40
2021/05/22 05:26:48;;;;;;;3.35;1.50;;;;;;;26.43;27.69;99512.87;1721234;82;21032;-38
2021/05/22 05:29:16;;;;;;;3.45;1.20;;;;;;;26.36;27.77;99511.80;1716964;82;21530;-36
2021/05/22 05:31:43;;;;;;;2.27;0.98;;;;;;;26.31;27.86;99507.38;1733020;82;21087;-40
2021/05/22 05:34:09;;;;;;;2.70;1.05;;;;;;;26.26;27.76;99506.48;1720346;82;21009;-37
2021/05/22 05:36:36;;;;;;;2.25;1.12;;;;;;;26.21;27.72;99507.45;1690691;83;21009;-37
2021/05/22 05:39:04;;;;;;;1.47;1.32;;;;;;;26.16;27.78;99507.54;1721616;82;21131;-38
2021/05/22 05:41:31;;;;;;;1.62;1.30;;;;;;;26.11;27.93;99509.38;1721789;82;21029;-40
2021/05/22 05:43:57;;;;;;;2.33;1.75;;;;;;;26.09;28.07;99512.70;1722265;82;21094;-37
2021/05/22 05:46:25;;;;;;;2.47;1.20;;;;;;;26.05;28.32;99520.76;1721995;82;21072;-37
2021/05/22 05:48:52;;;;;;;4.05;1.50;;;;;;;26.01;28.40;99520.70;1718855;82;21515;-38
2021/05/22 05:51:18;;;;;;;1.65;1.30;;;;;;;26.00;28.55;99527.11;1721744;82;21551;-37
2021/05/22 05:53:45;;;;;;;1.50;1.30;;;;;;;25.98;28.53;99534.52;1721303;82;22070;-37
2021/05/22 05:56:11;;;;;;;3.02;1.50;;;;;;;25.95;28.67;99531.61;1721711;82;21618;-38
2021/05/22 05:58:38;;;;;;;2.33;1.37;;;;;;;25.92;28.70;99538.13;1720774;82;21017;-37
2021/05/22 06:01:07;;;;;;;3.75;1.70;;;;;;;25.90;28.58;99554.93;1721277;82;21065;-37
2021/05/22 06:03:33;;;;;;;2.15;1.30;;;;;;;25.87;28.71;99557.95;1721218;82;21547;-37
2021/05/22 06:05:59;;;;;;;4.83;1.47;;;;;;;25.85;28.82;99557.23;1702935;83;21520;-37
2021/05/22 06:08:26;;;;;;;3.17;1.70;;;;;;;25.82;28.79;99552.14;1721404;82;21566;-37
2021/05/22 06:10:53;;;;;;;4.42;1.85;;;;;;;25.79;28.95;99555.16;1703898;82;21065;-44
2021/05/22 06:13:30;;;;;;;2.00;1.50;;;;;;;25.78;29.18;99550.25;1724710;82;21013;-43
2021/05/22 06:18:35;;;;;;;8.65;1.90;;;;;;;25.80;29.54;99562.23;1713772;82;21043;-48
2021/05/22 06:21:03;;;;;;;5.10;2.20;;;;;;;25.76;30.14;99568.93;1710452;82;21763;-45
2021/05/22 06:23:30;;;;;;;9.23;2.17;;;;;;;25.75;30.48;99575.30;1710692;82;20905;-42
2021/05/22 06:25:58;;;;;;;4.65;1.70;;;;;;;25.74;30.53;99583.06;1680090;82;21040;-47
2021/05/22 06:28:25;;;;;;;8.03;2.10;;;;;;;25.76;30.53;99582.41;1710887;82;21116;-44
2021/05/22 06:30:55;;;;;;;8.23;2.35;;;;;;;25.77;30.48;99583.61;1710521;82;21043;-42
2021/05/22 06:33:22;;;;;;;5.17;1.87;;;;;;;25.80;30.46;99589.69;1683256;82;22168;-45
2021/05/22 06:35:48;;;;;;;4.15;1.70;;;;;;;25.81;30.41;99589.54;1709982;82;21196;-43
2021/05/22 06:38:15;;;;;;;7.95;1.90;;;;;;;25.83;30.39;99593.44;1680273;82;21019;-49
2021/05/22 06:40:43;;;;;;;6.30;2.02;;;;;;;25.83;30.35;99596.13;1710509;82;21020;-42
2021/05/22 06:43:09;;;;;;;4.03;1.72;;;;;;;25.83;30.34;99582.14;1683066;82;21028;-42
2021/05/22 06:45:45;;;;;;;4.92;1.40;;;;;;;25.84;30.33;99579.81;1710341;82;21087;-43
2021/05/22 06:48:08;;;;;;;4.95;1.80;;;;;;;25.84;30.31;99583.86;1710089;82;21680;-44
2021/05/22 06:50:35;;;;;;;5.55;1.67;;;;;;;25.85;30.27;99584.19;1710861;82;21654;-43
2021/05/22 06:53:02;;;;;;;5.22;1.87;;;;;;;25.84;30.30;99590.59;1712529;82;21505;-45
2021/05/22 06:55:30;;;;;;;4.12;1.67;;;;;;;25.84;30.29;99589.72;1710076;82;21017;-43
2021/05/22 06:57:56;;;;;;;5.00;1.60;;;;;;;25.83;30.32;99589.39;1710095;82;21075;-41
2021/05/22 07:00:23;;;;;;;3.00;1.35;;;;;;;25.80;30.35;99586.48;1711830;82;21071;-42
2021/05/22 07:02:50;;;;;;;4.28;1.60;;;;;;;25.80;30.34;99590.53;1711003;82;21015;-50
2021/05/22 07:05:16;;;;;;;4.10;1.60;;;;;;;25.82;30.33;99587.69;1711598;82;21017;-49
2021/05/22 07:07:43;;;;;;;7.40;1.42;;;;;;;25.80;30.34;99585.14;1710892;82;21562;-42
2021/05/22 07:10:11;;;;;;;2.72;1.47;;;;;;;25.80;30.35;99578.40;1711584;82;21035;-49
2021/05/22 07:12:39;;;;;;;4.00;1.60;;;;;;;25.80;30.40;99578.40;1711774;82;21082;-45
2021/05/22 07:15:07;;;;;;;4.90;1.60;;;;;;;25.78;30.43;99570.97;1711939;82;21096;-43
2021/05/22 07:17:33;;;;;;;3.58;1.60;;;;;;;25.78;30.46;99573.66;1708521;82;22078;-44
2021/05/22 07:20:00;;;;;;;3.90;1.50;;;;;;;25.77;30.48;99570.61;1720523;82;21515;-45
2021/05/22 07:22:26;;;;;;;2.35;1.40;;;;;;;25.76;30.53;99566.23;1714279;82;21627;-42
2021/05/22 07:24:53;;;;;;;4.85;1.45;;;;;;;25.75;30.53;99561.32;1716957;82;21100;-44
2021/05/22 07:27:20;;;;;;;1.77;1.30;;;;;;;25.75;30.56;99555.09;1712681;82;21107;-44
2021/05/22 07:29:48;;;;;;;3.10;1.50;;;;;;;25.75;30.57;99564.52;1731176;81;21021;-48
2021/05/22 07:32:14;;;;;;;5.05;1.40;;;;;;;25.74;30.60;99562.84;1722675;82;21065;-45
2021/05/22 07:34:41;;;;;;;2.10;1.60;;;;;;;25.74;30.62;99557.45;1725234;81;21638;-42
2021/05/22 07:37:07;;;;;;;3.15;1.30;;;;;;;25.75;30.63;99555.09;1714277;82;21069;-43
2021/05/22 07:39:34;;;;;;;2.90;1.35;;;;;;;25.75;30.75;99559.97;1717818;82;21066;-43
2021/05/22 07:42:01;;;;;;;4.15;1.70;;;;;;;25.77;30.85;99555.78;1683065;83;21034;-40
2021/05/22 07:44:28;;;;;;;2.37;1.42;;;;;;;25.76;30.94;99556.30;1685257;83;21033;-44
2021/05/22 07:46:55;;;;;;;2.47;1.30;;;;;;;25.77;31.11;99558.00;1658158;85;21058;-41
2021/05/22 07:49:21;;;;;;;1.70;1.57;;;;;;;25.78;31.13;99554.80;1687712;84;21060;-48
2021/05/22 07:51:48;;;;;;;4.00;1.98;;;;;;;25.80;31.17;99551.45;1684388;83;21111;-46
2021/05/22 07:54:15;;;;;;;2.42;1.80;;;;;;;25.80;31.31;99556.84;1681120;84;21547;-42
2021/05/22 07:56:41;;;;;;;2.90;1.50;;;;;;;25.81;31.35;99550.46;1680606;83;21037;-42
2021/05/22 07:59:08;;;;;;;3.60;2.02;;;;;;;25.81;31.43;99547.77;1680175;84;21041;-42
2021/05/22 08:01:35;;;;;;;5.65;1.98;;;;;;;25.81;31.52;99546.42;1696900;83;21002;-49
2021/05/22 08:04:02;;;;;;;4.17;1.70;;;;;;;25.81;31.60;99544.23;1680250;83;21692;-43
2021/05/22 08:06:29;;;;;;;3.25;1.77;;;;;;;25.82;31.57;99545.91;1713452;83;21089;-42
2021/05/22 08:08:55;;;;;;;3.10;1.70;;;;;;;25.82;31.58;99545.40;1713523;83;21060;-42
2021/05/22 08:11:22;;;;;;;5.72;1.80;;;;;;;25.83;31.63;99547.11;1661541;85;21118;-44
2021/05/22 08:13:48;;;;;;;3.15;1.65;;;;;;;25.82;31.73;99544.56;1685019;84;21041;-43
2021/05/22 08:16:15;;;;;;;2.08;1.82;;;;;;;25.82;31.70;99549.44;1679179;83;21562;-45
2021/05/22 08:18:41;;;;;;;2.75;1.62;;;;;;;25.83;31.70;99543.06;1689958;83;21667;-44
2021/05/22 08:21:08;;;;;;;3.37;1.77;;;;;;;25.84;31.74;99538.03;1695061;83;21020;-42
2021/05/22 08:23:35;;;;;;;3.47;1.67;;;;;;;25.86;31.73;99539.23;1687773;83;21106;-45
2021/05/22 08:26:01;;;;;;;2.62;1.70;;;;;;;25.86;31.81;99533.33;1681098;83;21025;-42
2021/05/22 08:28:29;;;;;;;3.62;1.47;;;;;;;25.88;31.77;99534.02;1682020;83;21221;-43
2021/05/22 08:30:58;;;;;;;3.15;1.90;;;;;;;25.90;31.75;99541.45;1686933;83;21075;-42
2021/05/22 08:33:24;;;;;;;5.80;1.72;;;;;;;25.92;31.75;99541.30;1644214;85;21013;-40
2021/05/22 08:35:51;;;;;;;1.90;1.70;;;;;;;25.92;31.77;99531.39;1651427;85;21576;-48
2021/05/22 08:38:18;;;;;;;3.92;1.65;;;;;;;25.94;31.74;99532.08;1679600;83;21033;-41
2021/05/22 08:40:45;;;;;;;2.10;1.87;;;;;;;25.96;31.74;99526.58;1652259;85;21201;-42
2021/05/22 08:43:11;;;;;;;2.27;1.40;;;;;;;25.97;31.70;99522.02;1684631;83;21092;-44
2021/05/22 08:45:38;;;;;;;2.60;1.47;;;;;;;25.98;31.68;99511.09;1681406;83;21056;-42
2021/05/22 08:48:06;;;;;;;4.37;1.70;;;;;;;26.01;31.68;99509.92;1658484;85;21065;-42
2021/05/22 08:50:32;;;;;;;5.70;1.75;;;;;;;26.02;31.65;99512.97;1690254;83;21034;-41
2021/05/22 08:52:59;;;;;;;2.15;1.70;;;;;;;26.03;31.64;99513.33;1663006;83;21543;-42
2021/05/22 08:55:26;;;;;;;4.05;1.32;;;;;;;26.04;31.60;99506.92;1688810;82;21069;-44
2021/05/22 08:57:52;;;;;;;2.33;1.40;;;;;;;26.06;31.59;99500.90;1682560;83;21017;-42
2021/05/22 09:00:22;;;;;;;4.05;1.50;;;;;;;26.06;31.61;99498.20;1705624;83;21310;-44
2021/05/22 09:02:49;;;;;;;2.47;1.50;;;;;;;26.06;31.64;99502.25;1704694;82;20991;-42
2021/05/22 09:05:21;;;;;;;3.10;1.40;;;;;;;26.06;31.58;99499.05;1662411;84;21171;-49
2021/05/22 09:07:54;;;;;;;1.77;1.32;;;;;;;26.08;31.58;99505.63;1661168;85;21086;-44
2021/05/22 09:10:32;;;;;;;2.87;1.50;;;;;;;26.09;31.57;99498.73;1651957;85;21061;-45
2021/05/22 09:13:08;;;;;;;3.33;1.52;;;;;;;26.11;31.55;99496.73;1681496;85;21720;-42
2021/05/22 09:15:37;;;;;;;1.42;0.98;;;;;;;26.14;31.51;99503.65;1669259;84;21064;-44
2021/05/22 09:18:17;;;;;;;1.80;1.35;;;;;;;26.15;31.50;99490.52;1684700;83;21025;-42
2021/05/22 09:20:51;;;;;;;3.20;1.25;;;;;;;26.15;31.50;99499.96;1663690;85;21043;-43
2021/05/22 09:23:22;;;;;;;2.55;1.10;;;;;;;26.17;31.47;99493.07;1670403;84;21054;-42
2021/05/22 09:25:51;;;;;;;1.60;1.32;;;;;;;26.19;31.41;99493.76;1650778;85;21207;-45
2021/05/22 09:28:21;;;;;;;1.40;1.20;;;;;;;26.19;31.40;99491.90;1656770;84;21500;-42
2021/05/22 09:30:49;;;;;;;4.08;1.82;;;;;;;26.20;31.39;99490.91;1666106;84;21534;-42
2021/05/22 09:33:19;;;;;;;2.20;1.07;;;;;;;26.20;31.36;99489.56;1658858;85;21106;-42
2021/05/22 09:36:02;;;;;;;3.98;1.65;;;;;;;26.20;31.35;99485.52;1660436;85;21043;-43
2021/05/22 09:38:45;;;;;;;1.82;1.20;;;;;;;26.21;31.34;99485.00;1642805;86;21050;-42
2021/05/22 09:41:30;;;;;;;2.00;0.98;;;;;;;26.22;31.33;99478.62;1654557;85;21121;-42
2021/05/22 09:44:09;;;;;;;1.22;1.10;;;;;;;26.22;31.33;99482.66;1633210;85;21059;-42
2021/05/22 09:46:50;;;;;;;1.37;1.02;;;;;;;26.23;31.31;99487.91;1714227;82;21069;-44
2021/05/22 09:49:23;;;;;;;1.80;1.22;;;;;;;26.23;31.29;99479.81;1697051;83;21001;-43
2021/05/22 09:52:12;;;;;;;1.70;1.00;;;;;;;26.23;31.31;99483.86;1714144;83;21062;-46
2021/05/22 09:54:51;;;;;;;1.17;1.05;;;;;;;26.25;31.28;99485.06;1704220;83;21016;-42
2021/05/22 09:57:24;;;;;;;1.30;0.78;;;;;;;26.25;31.25;99479.16;1713681;83;21980;-44
2021/05/22 10:00:15;;;;;;;1.67;1.50;;;;;;;26.26;31.25;99476.81;1710410;83;21034;-44
2021/05/22 10:02:57;;;;;;;2.25;1.15;;;;;;;26.26;31.25;99467.37;1708465;83;21010;-48
2021/05/22 10:05:31;;;;;;;0.95;0.80;;;;;;;26.26;31.25;99463.33;1715086;82;21082;-43
2021/05/22 10:08:03;;;;;;;1.35;1.05;;;;;;;26.27;31.25;99466.87;1709722;82;20994;-42
2021/05/22 10:10:45;;;;;;;1.47;1.00;;;;;;;26.27;31.25;99466.35;1711938;82;21069;-44
2021/05/22 10:13:15;;;;;;;1.67;0.93;;;;;;;26.27;31.23;99458.27;1701958;83;21058;-44
2021/05/22 10:15:42;;;;;;;1.52;0.95;;;;;;;26.27;31.23;99454.22;1710340;83;21548;-43
2021/05/22 10:18:09;;;;;;;1.82;1.07;;;;;;;26.28;31.25;99453.23;1715511;83;21060;-41
2021/05/22 10:20:37;;;;;;;2.02;1.15;;;;;;;26.28;31.21;99446.99;1709251;83;21117;-45
2021/05/22 10:23:05;;;;;;;0.85;0.70;;;;;;;26.27;31.27;99440.73;1726742;82;21098;-44
2021/05/22 10:25:32;;;;;;;2.05;0.98;;;;;;;26.28;31.24;99437.05;1709615;83;21031;-45
2021/05/22 10:27:59;;;;;;;2.37;1.10;;;;;;;26.28;31.26;99431.65;1718546;83;21046;-42
2021/05/22 10:30:26;;;;;;;1.12;1.00;;;;;;;26.29;31.26;99436.05;1711734;83;21059;-44
2021/05/22 10:33:08;;;;;;;1.42;1.00;;;;;;;26.28;31.26;99422.20;1713990;83;21125;-45
2021/05/22 10:35:48;;;;;;;2.17;0.82;;;;;;;26.29;31.27;99430.66;1723085;82;21858;-48
2021/05/22 10:38:35;;;;;;;1.75;0.90;;;;;;;26.28;31.27;99423.56;1715240;82;21051;-43
2021/05/22 10:41:10;;;;;;;3.08;0.80;;;;;;;26.29;31.26;99423.91;1712794;83;21093;-45
2021/05/22 10:43:40;;;;;;;0.93;0.93;;;;;;;26.30;31.25;99401.83;1713081;83;21575;-43
2021/05/22 10:46:06;;;;;;;1.45;0.90;;;;;;;26.29;31.27;99417.17;1701930;83;21540;-42
2021/05/22 10:48:41;;;;;;;2.80;0.80;;;;;;;26.30;31.27;99409.92;1707100;83;21130;-42
2021/05/22 10:51:25;;;;;;;1.50;0.70;;;;;;;26.29;31.26;99407.73;1704273;83;21010;-42
2021/05/22 10:53:57;;;;;;;1.20;1.10;;;;;;;26.30;31.28;99408.06;1616808;87;21126;-42
2021/05/22 10:56:23;;;;;;;0.80;0.72;;;;;;;26.31;31.29;99406.23;1708271;83;21648;-43
2021/05/22 10:59:09;;;;;;;1.15;1.00;;;;;;;26.32;31.25;99410.60;1707365;83;21059;-42
2021/05/22 11:01:39;;;;;;;1.00;0.85;;;;;;;26.32;31.28;99397.95;1704388;82;21113;-44
2021/05/22 11:04:13;;;;;;;1.10;0.78;;;;;;;26.34;31.25;99396.45;1705144;83;21042;-42
2021/05/22 11:06:51;;;;;;;1.55;0.80;;;;;;;26.37;31.24;99400.19;1707814;83;21706;-46
2021/05/22 11:09:35;;;;;;;1.10;0.90;;;;;;;26.39;31.23;99383.84;1709283;83;21505;-42
2021/05/22 11:12:20;;;;;;;0.80;0.80;;;;;;;26.41;31.21;99389.92;1715575;83;21081;-42
2021/05/22 11:14:51;;;;;;;1.10;0.80;;;;;;;26.41;31.20;99385.88;1711312;83;21509;-44
2021/05/22 11:17:27;;;;;;;1.07;0.80;;;;;;;26.42;31.19;99386.23;1710732;83;21977;-42
2021/05/22 11:20:05;;;;;;;1.60;0.90;;;;;;;26.42;31.19;99380.33;1717111;82;21017;-48
2021/05/22 11:22:53;;;;;;;0.98;0.72;;;;;;;26.43;31.17;99377.14;1718237;82;21077;-43
2021/05/22 11:25:18;;;;;;;0.78;0.78;;;;;;;26.45;31.14;99372.43;1714269;82;21045;-45
2021/05/22 11:27:58;;;;;;;1.10;1.00;;;;;;;26.46;31.14;99372.27;1699143;82;21637;-47
2021/05/22 11:30:36;;;;;;;0.95;0.72;;;;;;;26.47;31.17;99365.86;1695717;83;21901;-43
2021/05/22 11:33:03;;;;;;;3.22;1.12;;;;;;;26.47;31.16;99370.41;1713551;82;21088;-41
2021/05/22 11:35:45;;;;;;;13.50;2.42;;;;;;;26.48;31.48;99374.81;1719963;82;21587;-42
2021/05/22 11:38:25;;;;;;;3.98;2.52;;;;;;;26.50;31.13;99371.45;1724719;82;21586;-42
2021/05/22 11:40:53;;;;;;;4.55;2.17;;;;;;;26.51;30.28;99375.34;1700956;82;21021;-42
2021/05/22 11:43:29;;;;;;;2.77;2.40;;;;;;;26.49;30.35;99371.09;1731154;82;21006;-38
2021/05/22 11:46:00;;;;;;;6.35;1.47;;;;;;;26.47;30.31;99373.11;1725621;82;21085;-43